Diadema Argentina, Argentina
Current Conditions -  °F | °C
As of 1:00 AM on Monday 22 Dec 2014 (Local Time) from SAVC Reporting Station
Clear Clear  
Wind Chill: 46°   Ceiling: Unl
Heat Index: 46°   Visibility: 6mi
Dew Point: 37°   Wind: 3mph
Humidity: 71%   Direction: 340°NNW
Pressure: 30"   Gusts: NA
Location:  45.77°S, 67.67°W
Report Text: SAVC 220400Z 34003KT CAVOK 08/03 Q1016
Loading
Personal Weather Stations






























Interactive Weather Map New forecast layout! Learn more

10-Day Weather Forecast

Advertisements
Track Severe Weather on mobile